| time (UTC) | temp F | wind direction | speed MPH | gust MPH | rain 1hr in | rain 24hr in | rain mn in | humidity % | barometer mb |
| 20260905234636 | 93 | 60 | 0.0 | 0.0 | 0.00 | 0.00 | 0.00 | 65 | 997.0 |
| 20260905234131 | 93 | 59 | 0.0 | 0.0 | 0.00 | 0.00 | 0.00 | 65 | 997.2 |
| 20260905233626 | 93 | 62 | 0.0 | 0.0 | 0.00 | 0.00 | 0.00 | 64 | 997.2 |
| 20260905233120 | 93 | 59 | 0.0 | 0.0 | 0.00 | 0.00 | 0.00 | 64 | 997.0 |
| 20260905232616 | 93 | 58 | 0.0 | 0.0 | 0.00 | 0.00 | 0.00 | 63 | 997.1 |
| 20260905232111 | 93 | 58 | 0.0 | 0.0 | 0.00 | 0.00 | 0.00 | 63 | 996.9 |
| 20260905231606 | 93 | 58 | 0.0 | 0.0 | 0.00 | 0.00 | 0.00 | 63 | 997.0 |
| 20260905231102 | 94 | 59 | 0.0 | 0.0 | 0.00 | 0.00 | 0.00 | 62 | 996.9 |
| 20260905230603 | 94 | 62 | 0.0 | 0.0 | 0.00 | 0.00 | 0.00 | 62 | 996.9 |
| 20260905230100 | 94 | 62 | 0.0 | 0.0 | 0.00 | 0.00 | 0.00 | 62 | 996.9 |
| 20260905225554 | 94 | 65 | 0.0 | 0.0 | 0.00 | 0.00 | 0.00 | 61 | 997.1 |
| 20260905225050 | 95 | 59 | 0.0 | 0.0 | 0.00 | 0.00 | 0.00 | 59 | 997.2 |
| 20260905224550 | 95 | 50 | 0.0 | 0.0 | 0.00 | 0.00 | 0.00 | 60 | 997.0 |
| 20260905224049 | 96 | 61 | 0.0 | 0.0 | 0.00 | 0.00 | 0.00 | 59 | 996.8 |
| 20260905223547 | 96 | 58 | 0.0 | 0.0 | 0.00 | 0.00 | 0.00 | 58 | 996.7 |
| 20260905223042 | 97 | 55 | 1.0 | 2.0 | 0.00 | 0.00 | 0.00 | 57 | 996.8 |
| 20260905222543 | 97 | 58 | 0.0 | 1.0 | 0.00 | 0.00 | 0.00 | 56 | 996.9 |
| 20260905222038 | 97 | 57 | 0.0 | 0.0 | 0.00 | 0.00 | 0.00 | 55 | 996.8 |
| 20260905221534 | 97 | 341 | 3.0 | 3.0 | 0.00 | 0.00 | 0.00 | 54 | 996.8 |
| 20260905221030 | 98 | 21 | 4.0 | 5.0 | 0.00 | 0.00 | 0.00 | 54 | 997.0 |
| 20260905220526 | 98 | 49 | 3.0 | 3.0 | 0.00 | 0.00 | 0.00 | 53 | 996.7 |
| 20260905220022 | 99 | 42 | 3.0 | 3.0 | 0.00 | 0.00 | 0.00 | 53 | 996.8 |
| 20260905215521 | 100 | 358 | 2.0 | 2.0 | 0.00 | 0.00 | 0.00 | 51 | 996.8 |
| 20260905215017 | 100 | 18 | 0.0 | 1.0 | 0.00 | 0.00 | 0.00 | 52 | 997.0 |
| 20260905214513 | 100 | 63 | 0.0 | 0.0 | 0.00 | 0.00 | 0.00 | 51 | 997.1 |
| 20260905214008 | 100 | 53 | 3.0 | 3.0 | 0.00 | 0.00 | 0.00 | 51 | 996.8 |
| 20260905213503 | 100 | 14 | 2.0 | 2.0 | 0.00 | 0.00 | 0.00 | 50 | 996.7 |
| 20260905212958 | 100 | 12 | 3.0 | 5.0 | 0.00 | 0.00 | 0.00 | 53 | 996.8 |
| 20260905212453 | 100 | 20 | 1.0 | 2.0 | 0.00 | 0.00 | 0.00 | 52 | 997.0 |
| 20260905211952 | 99 | 29 | 1.0 | 2.0 | 0.00 | 0.00 | 0.00 | 53 | 997.0 |
| 20260905211448 | 98 | 10 | 3.0 | 3.0 | 0.00 | 0.00 | 0.00 | 54 | 996.9 |
| 20260905210943 | 97 | 3 | 1.0 | 1.0 | 0.00 | 0.00 | 0.00 | 55 | 997.2 |
| 20260905210439 | 96 | 312 | 3.0 | 6.0 | 0.00 | 0.00 | 0.00 | 57 | 997.0 |
| 20260905205938 | 97 | 40 | 0.0 | 1.0 | 0.00 | 0.00 | 0.00 | 56 | 997.3 |
| 20260905205433 | 97 | 31 | 1.0 | 2.0 | 0.00 | 0.00 | 0.00 | 57 | 997.1 |
| 20260905204932 | 96 | 356 | 2.0 | 2.0 | 0.00 | 0.00 | 0.00 | 57 | 997.3 |
| 20260905204428 | 96 | 0 | 0.0 | 2.0 | 0.00 | 0.00 | 0.00 | 57 | 997.3 |
| 20260905203927 | 97 | 81 | 3.0 | 3.0 | 0.00 | 0.00 | 0.00 | 54 | 997.5 |
| 20260905203422 | 97 | 37 | 1.0 | 1.0 | 0.00 | 0.00 | 0.00 | 53 | 997.2 |
| 20260905202918 | 99 | 69 | 4.0 | 6.0 | 0.00 | 0.00 | 0.00 | 52 | 997.3 |
| 20260905202413 | 99 | 50 | 2.0 | 3.0 | 0.00 | 0.00 | 0.00 | 50 | 997.4 |
| 20260905201909 | 99 | 15 | 3.0 | 5.0 | 0.00 | 0.00 | 0.00 | 49 | 997.3 |
| 20260905201404 | 100 | 29 | 1.0 | 1.0 | 0.00 | 0.00 | 0.00 | 47 | 997.2 |
| 20260905200903 | 101 | 66 | 0.0 | 0.0 | 0.00 | 0.00 | 0.00 | 47 | 997.2 |
| 20260905200359 | 102 | 68 | 0.0 | 0.0 | 0.00 | 0.00 | 0.00 | 47 | 997.2 |
| 20260905195857 | 103 | 351 | 2.0 | 2.0 | 0.00 | 0.00 | 0.00 | 45 | 997.4 |
| 20260905195353 | 102 | 247 | 3.0 | 3.0 | 0.00 | 0.00 | 0.00 | 45 | 997.7 |
| 20260905194848 | 104 | 41 | 2.0 | 5.0 | 0.00 | 0.00 | 0.00 | 44 | 997.3 |
| 20260905194348 | 104 | 54 | 0.0 | 0.0 | 0.00 | 0.00 | 0.00 | 45 | 997.6 |
| 20260905193848 | 102 | 27 | 2.0 | 3.0 | 0.00 | 0.00 | 0.00 | 46 | 997.6 |
| 20260905193342 | 102 | 8 | 2.0 | 2.0 | 0.00 | 0.00 | 0.00 | 46 | 997.6 |
| 20260905192838 | 102 | 32 | 3.0 | 3.0 | 0.00 | 0.00 | 0.00 | 46 | 997.5 |
| 20260905192334 | 102 | 351 | 3.0 | 3.0 | 0.00 | 0.00 | 0.00 | 46 | 997.6 |
| 20260905191833 | 101 | 30 | 2.0 | 2.0 | 0.00 | 0.00 | 0.00 | 46 | 997.9 |
| 20260905191332 | 101 | 14 | 2.0 | 3.0 | 0.00 | 0.00 | 0.00 | 46 | 997.9 |
| 20260905190831 | 101 | 10 | 4.0 | 7.0 | 0.00 | 0.00 | 0.00 | 46 | 997.8 |
| 20260905190325 | 101 | 331 | 4.0 | 6.0 | 0.00 | 0.00 | 0.00 | 46 | 998.0 |
| 20260905185824 | 101 | 19 | 5.0 | 6.0 | 0.00 | 0.00 | 0.00 | 46 | 997.8 |
| 20260905185319 | 102 | 3 | 4.0 | 6.0 | 0.00 | 0.00 | 0.00 | 44 | 997.9 |
| 20260905184818 | 102 | 306 | 1.0 | 1.0 | 0.00 | 0.00 | 0.00 | 44 | 998.0 |
| 20260905184317 | 102 | 322 | 3.0 | 5.0 | 0.00 | 0.00 | 0.00 | 46 | 998.0 |
| 20260905183816 | 102 | 352 | 1.0 | 1.0 | 0.00 | 0.00 | 0.00 | 45 | 998.2 |
| 20260905183312 | 101 | 293 | 1.0 | 2.0 | 0.00 | 0.00 | 0.00 | 46 | 998.3 |
| 20260905182806 | 101 | 295 | 4.0 | 5.0 | 0.00 | 0.00 | 0.00 | 47 | 998.4 |
| 20260905182306 | 100 | 51 | 0.0 | 0.0 | 0.00 | 0.00 | 0.00 | 47 | 998.4 |
| 20260905181801 | 101 | 340 | 2.0 | 2.0 | 0.00 | 0.00 | 0.00 | 45 | 998.6 |
| 20260905181301 | 102 | 325 | 3.0 | 5.0 | 0.00 | 0.00 | 0.00 | 44 | 998.6 |
| 20260905180754 | 103 | 30 | 3.0 | 3.0 | 0.00 | 0.00 | 0.00 | 45 | 998.5 |
| 20260905180250 | 102 | 297 | 2.0 | 3.0 | 0.00 | 0.00 | 0.00 | 48 | 998.6 |
| 20260905175744 | 101 | 84 | 1.0 | 1.0 | 0.00 | 0.00 | 0.00 | 47 | 998.6 |
| 20260905175239 | 101 | 1 | 3.0 | 3.0 | 0.00 | 0.00 | 0.00 | 49 | 998.6 |
| 20260905174734 | 101 | 46 | 1.0 | 1.0 | 0.00 | 0.00 | 0.00 | 50 | 998.6 |
| 20260905174230 | 103 | 357 | 2.0 | 3.0 | 0.00 | 0.00 | 0.00 | 50 | 998.6 |
| 20260905173726 | 102 | 54 | 0.0 | 1.0 | 0.00 | 0.00 | 0.00 | 50 | 998.7 |
| 20260905173221 | 100 | 62 | 0.0 | 0.0 | 0.00 | 0.00 | 0.00 | 51 | 998.8 |
| 20260905172715 | 100 | 34 | 0.0 | 0.0 | 0.00 | 0.00 | 0.00 | 51 | 998.9 |
| 20260905172209 | 100 | 89 | 0.0 | 0.0 | 0.00 | 0.00 | 0.00 | 53 | 998.8 |
| 20260905171705 | 100 | 101 | 2.0 | 2.0 | 0.00 | 0.00 | 0.00 | 54 | 998.9 |
| 20260905171201 | 100 | 330 | 2.0 | 2.0 | 0.00 | 0.00 | 0.00 | 54 | 998.8 |
| 20260905170658 | 101 | 91 | 1.0 | 1.0 | 0.00 | 0.00 | 0.00 | 53 | 998.8 |
| 20260905170157 | 100 | 74 | 0.0 | 1.0 | 0.00 | 0.00 | 0.00 | 53 | 999.2 |
| 20260905165652 | 101 | 340 | 1.0 | 1.0 | 0.00 | 0.00 | 0.00 | 55 | 999.2 |
| 20260905165147 | 100 | 2 | 0.0 | 0.0 | 0.00 | 0.00 | 0.00 | 53 | 999.2 |
| 20260905164642 | 99 | 294 | 1.0 | 2.0 | 0.00 | 0.00 | 0.00 | 53 | 999.3 |
| 20260905164141 | 99 | 124 | 0.0 | 1.0 | 0.00 | 0.00 | 0.00 | 54 | 999.3 |
| 20260905163638 | 98 | 0 | 0.0 | 1.0 | 0.00 | 0.00 | 0.00 | 56 | 999.3 |
| 20260905163134 | 98 | 102 | 1.0 | 1.0 | 0.00 | 0.00 | 0.00 | 58 | 999.4 |
| 20260905162630 | 97 | 45 | 0.0 | 0.0 | 0.00 | 0.00 | 0.00 | 56 | 999.4 |
| 20260905162129 | 97 | 69 | 0.0 | 0.0 | 0.00 | 0.00 | 0.00 | 55 | 999.8 |
| 20260905161629 | 96 | 40 | 2.0 | 2.0 | 0.00 | 0.00 | 0.00 | 59 | 999.5 |
| 20260905161127 | 96 | 29 | 0.0 | 1.0 | 0.00 | 0.00 | 0.00 | 59 | 999.6 |
| 20260905160627 | 96 | 18 | 1.0 | 1.0 | 0.00 | 0.00 | 0.00 | 60 | 999.5 |
| 20260905160121 | 95 | 52 | 0.0 | 1.0 | 0.00 | 0.00 | 0.00 | 61 | 999.7 |
| 20260905155621 | 96 | 44 | 1.0 | 2.0 | 0.00 | 0.00 | 0.00 | 60 | 999.6 |
| 20260905155119 | 95 | 12 | 1.0 | 2.0 | 0.00 | 0.00 | 0.00 | 62 | 999.4 |
| 20260905154614 | 95 | 77 | 0.0 | 0.0 | 0.00 | 0.00 | 0.00 | 62 | 999.8 |
| 20260905154110 | 94 | 33 | 0.0 | 0.0 | 0.00 | 0.00 | 0.00 | 63 | 999.6 |
| 20260905153606 | 94 | 319 | 3.0 | 3.0 | 0.00 | 0.00 | 0.00 | 64 | 999.7 |
| 20260905153100 | 93 | 48 | 1.0 | 1.0 | 0.00 | 0.00 | 0.00 | 64 | 999.5 |
| 20260905152555 | 94 | 96 | 1.0 | 1.0 | 0.00 | 0.00 | 0.00 | 65 | 999.5 |
| 20260905152050 | 93 | 80 | 1.0 | 1.0 | 0.00 | 0.00 | 0.00 | 65 | 999.7 |
| 20260905151545 | 92 | 41 | 0.0 | 0.0 | 0.00 | 0.00 | 0.00 | 66 | 999.5 |
| 20260905151040 | 92 | 17 | 1.0 | 1.0 | 0.00 | 0.00 | 0.00 | 67 | 999.8 |
| 20260905150536 | 91 | 73 | 0.0 | 1.0 | 0.00 | 0.00 | 0.00 | 69 | 999.5 |
| 20260905150033 | 91 | 21 | 1.0 | 1.0 | 0.00 | 0.00 | 0.00 | 68 | 999.4 |
| 20260905145527 | 90 | 60 | 0.0 | 0.0 | 0.00 | 0.00 | 0.00 | 70 | 999.5 |
| 20260905145027 | 89 | 11 | 1.0 | 2.0 | 0.00 | 0.00 | 0.00 | 72 | 999.5 |
| 20260905144522 | 89 | 43 | 2.0 | 2.0 | 0.00 | 0.00 | 0.00 | 73 | 999.7 |
| 20260905144021 | 88 | 64 | 0.0 | 1.0 | 0.00 | 0.00 | 0.00 | 74 | 999.7 |
| 20260905143520 | 88 | 322 | 1.0 | 2.0 | 0.00 | 0.00 | 0.00 | 74 | 999.8 |
| 20260905143015 | 88 | 40 | 0.0 | 0.0 | 0.00 | 0.00 | 0.00 | 75 | 999.6 |
| 20260905142514 | 87 | 38 | 0.0 | 1.0 | 0.00 | 0.00 | 0.00 | 75 | 999.5 |
| 20260905142009 | 87 | 27 | 0.0 | 1.0 | 0.00 | 0.00 | 0.00 | 76 | 999.5 |
| 20260905141503 | 87 | 25 | 1.0 | 1.0 | 0.00 | 0.00 | 0.00 | 76 | 999.4 |
| 20260905141000 | 87 | 43 | 0.0 | 0.0 | 0.00 | 0.00 | 0.00 | 75 | 999.5 |
| 20260905140455 | 86 | 69 | 0.0 | 0.0 | 0.00 | 0.00 | 0.00 | 75 | 999.7 |
| 20260905135953 | 86 | 52 | 0.0 | 0.0 | 0.00 | 0.00 | 0.00 | 75 | 999.6 |
| 20260905135449 | 86 | 78 | 0.0 | 0.0 | 0.00 | 0.00 | 0.00 | 77 | 999.4 |
| 20260905134944 | 86 | 81 | 0.0 | 0.0 | 0.00 | 0.00 | 0.00 | 77 | 999.6 |
| 20260905134444 | 85 | 63 | 0.0 | 0.0 | 0.00 | 0.00 | 0.00 | 78 | 999.7 |
| 20260905133943 | 85 | 96 | 0.0 | 1.0 | 0.00 | 0.00 | 0.00 | 77 | 999.9 |
| 20260905133438 | 84 | 84 | 0.0 | 0.0 | 0.00 | 0.00 | 0.00 | 78 | 999.7 |
| 20260905132938 | 84 | 79 | 0.0 | 0.0 | 0.00 | 0.00 | 0.00 | 78 | 999.7 |
| 20260905132433 | 84 | 61 | 0.0 | 0.0 | 0.00 | 0.00 | 0.00 | 79 | 999.4 |
| 20260905131928 | 83 | 71 | 0.0 | 0.0 | 0.00 | 0.00 | 0.00 | 80 | 999.8 |
| 20260905131424 | 83 | 72 | 0.0 | 0.0 | 0.00 | 0.00 | 0.00 | 80 | 999.7 |
| 20260905130923 | 82 | 69 | 0.0 | 0.0 | 0.00 | 0.00 | 0.00 | 81 | 999.6 |
| 20260905130418 | 82 | 72 | 0.0 | 0.0 | 0.00 | 0.00 | 0.00 | 83 | 999.8 |
| 20260905125918 | 82 | 88 | 0.0 | 1.0 | 0.00 | 0.00 | 0.00 | 84 | 999.6 |
| 20260905125413 | 82 | 70 | 0.0 | 0.0 | 0.00 | 0.00 | 0.00 | 83 | 999.7 |
| 20260905124908 | 81 | 72 | 0.0 | 0.0 | 0.00 | 0.00 | 0.00 | 83 | 999.5 |
| 20260905124405 | 81 | 83 | 1.0 | 1.0 | 0.00 | 0.00 | 0.00 | 84 | 999.3 |
| 20260905123904 | 81 | 81 | 0.0 | 0.0 | 0.00 | 0.00 | 0.00 | 85 | 999.5 |
| 20260905123401 | 80 | 76 | 0.0 | 0.0 | 0.00 | 0.00 | 0.00 | 85 | 999.3 |
| 20260905122856 | 80 | 77 | 0.0 | 0.0 | 0.00 | 0.00 | 0.00 | 85 | 999.4 |
| 20260905122355 | 80 | 87 | 0.0 | 1.0 | 0.00 | 0.00 | 0.00 | 86 | 999.3 |
| 20260905121851 | 80 | 81 | 0.0 | 1.0 | 0.00 | 0.00 | 0.00 | 86 | 999.3 |
| 20260905121347 | 80 | 83 | 0.0 | 0.0 | 0.00 | 0.00 | 0.00 | 86 | 999.3 |
| 20260905120846 | 80 | 79 | 0.0 | 0.0 | 0.00 | 0.00 | 0.00 | 86 | 999.4 |
| 20260905120340 | 80 | 75 | 0.0 | 0.0 | 0.00 | 0.00 | 0.00 | 86 | 999.1 |
| 20260905115836 | 80 | 77 | 0.0 | 0.0 | 0.00 | 0.00 | 0.00 | 86 | 999.1 |
| 20260905115335 | 80 | 78 | 1.0 | 1.0 | 0.00 | 0.00 | 0.00 | 87 | 998.9 |
| 20260905114834 | 80 | 70 | 0.0 | 0.0 | 0.00 | 0.00 | 0.00 | 86 | 999.1 |
| 20260905114334 | 80 | 77 | 0.0 | 0.0 | 0.00 | 0.00 | 0.00 | 86 | 998.9 |
| 20260905113828 | 80 | 76 | 1.0 | 1.0 | 0.00 | 0.00 | 0.00 | 86 | 998.9 |
| 20260905113324 | 80 | 74 | 0.0 | 0.0 | 0.00 | 0.00 | 0.00 | 85 | 999.1 |
| 20260905112819 | 80 | 75 | 0.0 | 0.0 | 0.00 | 0.00 | 0.00 | 85 | 998.8 |
| 20260905112314 | 80 | 59 | 0.0 | 0.0 | 0.00 | 0.00 | 0.00 | 84 | 999.0 |
| 20260905111809 | 81 | 57 | 0.0 | 0.0 | 0.00 | 0.00 | 0.00 | 83 | 998.8 |
| 20260905111303 | 81 | 57 | 0.0 | 0.0 | 0.00 | 0.00 | 0.00 | 83 | 998.9 |
| 20260905110802 | 81 | 57 | 0.0 | 0.0 | 0.00 | 0.00 | 0.00 | 83 | 998.7 |
| 20260905110256 | 81 | 57 | 0.0 | 0.0 | 0.00 | 0.00 | 0.00 | 84 | 998.7 |
| 20260905105752 | 81 | 57 | 0.0 | 0.0 | 0.00 | 0.00 | 0.00 | 83 | 999.0 |
| 20260905105251 | 81 | 55 | 0.0 | 0.0 | 0.00 | 0.00 | 0.00 | 83 | 998.8 |
| 20260905104746 | 81 | 55 | 0.0 | 0.0 | 0.00 | 0.00 | 0.00 | 83 | 998.8 |
| 20260905104242 | 81 | 55 | 0.0 | 0.0 | 0.00 | 0.00 | 0.00 | 83 | 998.8 |
| 20260905103736 | 81 | 55 | 0.0 | 0.0 | 0.00 | 0.00 | 0.00 | 83 | 998.7 |
| 20260905103232 | 81 | 55 | 0.0 | 0.0 | 0.00 | 0.00 | 0.00 | 82 | 998.6 |
| 20260905102727 | 81 | 55 | 0.0 | 0.0 | 0.00 | 0.00 | 0.00 | 81 | 998.8 |
| 20260905102224 | 82 | 55 | 0.0 | 0.0 | 0.00 | 0.00 | 0.00 | 81 | 998.9 |
| 20260905101723 | 82 | 55 | 0.0 | 0.0 | 0.00 | 0.00 | 0.00 | 81 | 999.1 |
| 20260905101221 | 81 | 55 | 0.0 | 0.0 | 0.00 | 0.00 | 0.00 | 81 | 999.0 |
| 20260905100717 | 81 | 54 | 0.0 | 0.0 | 0.00 | 0.00 | 0.00 | 81 | 998.9 |
| 20260905100212 | 81 | 53 | 0.0 | 0.0 | 0.00 | 0.00 | 0.00 | 82 | 999.1 |
| 20260905095712 | 81 | 51 | 0.0 | 0.0 | 0.00 | 0.00 | 0.00 | 81 | 998.7 |
| 20260905095207 | 82 | 51 | 0.0 | 0.0 | 0.00 | 0.00 | 0.00 | 80 | 998.6 |
| 20260905094706 | 82 | 51 | 0.0 | 0.0 | 0.00 | 0.00 | 0.00 | 80 | 998.7 |
| 20260905094201 | 82 | 51 | 0.0 | 0.0 | 0.00 | 0.00 | 0.00 | 80 | 998.7 |
| 20260905093655 | 82 | 51 | 0.0 | 0.0 | 0.00 | 0.00 | 0.00 | 80 | 998.7 |
| 20260905093151 | 82 | 51 | 0.0 | 0.0 | 0.00 | 0.00 | 0.00 | 80 | 998.7 |
| 20260905092646 | 82 | 51 | 0.0 | 0.0 | 0.00 | 0.00 | 0.00 | 79 | 998.6 |
| 20260905092142 | 83 | 51 | 0.0 | 0.0 | 0.00 | 0.00 | 0.00 | 79 | 998.6 |
| 20260905091636 | 83 | 52 | 0.0 | 0.0 | 0.00 | 0.00 | 0.00 | 78 | 998.8 |
| 20260905091135 | 83 | 47 | 0.0 | 0.0 | 0.00 | 0.00 | 0.00 | 77 | 998.5 |
| 20260905090631 | 83 | 44 | 0.0 | 1.0 | 0.00 | 0.00 | 0.00 | 77 | 998.7 |
| 20260905090126 | 83 | 46 | 1.0 | 2.0 | 0.00 | 0.00 | 0.00 | 77 | 998.6 |
| 20260905085625 | 83 | 43 | 0.0 | 0.0 | 0.00 | 0.00 | 0.00 | 78 | 998.7 |
| 20260905085120 | 83 | 50 | 0.0 | 1.0 | 0.00 | 0.00 | 0.00 | 78 | 998.7 |
| 20260905084619 | 83 | 47 | 0.0 | 1.0 | 0.00 | 0.00 | 0.00 | 77 | 998.7 |
| 20260905084114 | 83 | 27 | 1.0 | 1.0 | 0.00 | 0.00 | 0.00 | 77 | 998.8 |
| 20260905083609 | 83 | 41 | 0.0 | 1.0 | 0.00 | 0.00 | 0.00 | 77 | 998.8 |
| 20260905083106 | 83 | 39 | 0.0 | 1.0 | 0.00 | 0.00 | 0.00 | 77 | 999.0 |
| 20260905082601 | 83 | 32 | 1.0 | 1.0 | 0.00 | 0.00 | 0.00 | 77 | 998.8 |
| 20260905082057 | 83 | 42 | 1.0 | 1.0 | 0.00 | 0.00 | 0.00 | 78 | 998.9 |
| 20260905081556 | 83 | 44 | 0.0 | 0.0 | 0.00 | 0.00 | 0.00 | 78 | 998.9 |
| 20260905081051 | 83 | 35 | 0.0 | 0.0 | 0.00 | 0.00 | 0.00 | 78 | 998.8 |
| 20260905080550 | 83 | 19 | 1.0 | 1.0 | 0.00 | 0.00 | 0.00 | 78 | 998.9 |
| 20260905080046 | 83 | 18 | 1.0 | 1.0 | 0.00 | 0.00 | 0.00 | 79 | 999.0 |
| 20260905075544 | 83 | 19 | 1.0 | 1.0 | 0.00 | 0.00 | 0.00 | 79 | 998.8 |
| 20260905075039 | 83 | 16 | 1.0 | 1.0 | 0.00 | 0.00 | 0.00 | 79 | 998.8 |
| 20260905074538 | 83 | 25 | 0.0 | 1.0 | 0.00 | 0.00 | 0.00 | 79 | 998.9 |
| 20260905074034 | 84 | 1 | 1.0 | 1.0 | 0.00 | 0.00 | 0.00 | 78 | 998.9 |
| 20260905073529 | 84 | 348 | 1.0 | 2.0 | 0.00 | 0.00 | 0.00 | 77 | 999.0 |
| 20260905073025 | 84 | 289 | 1.0 | 2.0 | 0.00 | 0.00 | 0.00 | 77 | 998.9 |
| 20260905072524 | 84 | 298 | 1.0 | 2.0 | 0.00 | 0.00 | 0.00 | 76 | 999.0 |
| 20260905072020 | 85 | 285 | 2.0 | 2.0 | 0.00 | 0.00 | 0.00 | 75 | 998.9 |
| 20260905071517 | 85 | 255 | 2.0 | 2.0 | 0.00 | 0.00 | 0.00 | 75 | 999.0 |
| 20260905071017 | 85 | 261 | 2.0 | 2.0 | 0.00 | 0.00 | 0.00 | 76 | 999.1 |
| 20260905070512 | 84 | 248 | 2.0 | 2.0 | 0.00 | 0.00 | 0.00 | 76 | 999.1 |
| 20260905070008 | 84 | 325 | 1.0 | 1.0 | 0.00 | 0.00 | 0.00 | 77 | 999.0 |
| 20260905065505 | 84 | 277 | 1.0 | 2.0 | 0.00 | 0.00 | 0.00 | 77 | 999.1 |
| 20260905065001 | 84 | 354 | 1.0 | 1.0 | 0.00 | 0.00 | 0.00 | 77 | 999.2 |
| 20260905064455 | 84 | 323 | 1.0 | 1.0 | 0.00 | 0.00 | 0.00 | 78 | 999.1 |
| 20260905063950 | 84 | 7 | 1.0 | 1.0 | 0.00 | 0.00 | 0.00 | 77 | 999.3 |
| 20260905063439 | 84 | 16 | 1.0 | 1.0 | 0.00 | 0.00 | 0.00 | 77 | 999.1 |
| 20260905062936 | 84 | 8 | 1.0 | 1.0 | 0.00 | 0.00 | 0.00 | 76 | 999.2 |
| 20260905062435 | 85 | 322 | 1.0 | 1.0 | 0.00 | 0.00 | 0.00 | 76 | 999.1 |
| 20260905061930 | 85 | 355 | 1.0 | 1.0 | 0.00 | 0.00 | 0.00 | 75 | 999.1 |
| 20260905061425 | 85 | 16 | 0.0 | 1.0 | 0.00 | 0.00 | 0.00 | 74 | 999.3 |
| 20260905060924 | 86 | 7 | 1.0 | 1.0 | 0.00 | 0.00 | 0.00 | 74 | 999.2 |
| 20260905060421 | 86 | 19 | 1.0 | 1.0 | 0.00 | 0.00 | 0.00 | 73 | 999.4 |
| 20260905055920 | 86 | 16 | 1.0 | 1.0 | 0.00 | 0.00 | 0.00 | 73 | 999.3 |
| 20260905055415 | 86 | 331 | 1.0 | 2.0 | 0.00 | 0.00 | 0.00 | 72 | 999.2 |
| 20260905054914 | 86 | 68 | 0.0 | 0.0 | 0.00 | 0.00 | 0.00 | 72 | 999.3 |
| 20260905054410 | 87 | 21 | 0.0 | 1.0 | 0.00 | 0.00 | 0.00 | 71 | 999.4 |
| 20260905053910 | 87 | 4 | 1.0 | 1.0 | 0.00 | 0.00 | 0.00 | 71 | 999.3 |
| 20260905053405 | 87 | 112 | 1.0 | 1.0 | 0.00 | 0.00 | 0.00 | 70 | 999.5 |
| 20260905052901 | 87 | 336 | 1.0 | 1.0 | 0.00 | 0.00 | 0.00 | 70 | 999.3 |
| 20260905052400 | 87 | 21 | 0.0 | 0.0 | 0.00 | 0.00 | 0.00 | 70 | 999.5 |
| 20260905051859 | 87 | 25 | 0.0 | 1.0 | 0.00 | 0.00 | 0.00 | 70 | 999.4 |
| 20260905051356 | 87 | 28 | 0.0 | 1.0 | 0.00 | 0.00 | 0.00 | 69 | 999.4 |
| 20260905050853 | 87 | 10 | 1.0 | 1.0 | 0.00 | 0.00 | 0.00 | 68 | 999.4 |
| 20260905050348 | 87 | 6 | 1.0 | 1.0 | 0.00 | 0.00 | 0.00 | 68 | 999.3 |
| 20260905045849 | 87 | 4 | 1.0 | 1.0 | 0.00 | 0.00 | 0.00 | 67 | 999.2 |
| 20260905045344 | 87 | 64 | 1.0 | 1.0 | 0.00 | 0.00 | 0.00 | 67 | 999.2 |
| 20260905044839 | 87 | 66 | 0.0 | 0.0 | 0.00 | 0.00 | 0.00 | 67 | 999.5 |
| 20260905044335 | 87 | 82 | 0.0 | 0.0 | 0.00 | 0.00 | 0.00 | 67 | 999.4 |
| 20260905043833 | 87 | 69 | 0.0 | 0.0 | 0.00 | 0.00 | 0.00 | 67 | 999.4 |
| 20260905043328 | 87 | 41 | 0.0 | 0.0 | 0.00 | 0.00 | 0.00 | 67 | 999.2 |
| 20260905042823 | 87 | 73 | 0.0 | 0.0 | 0.00 | 0.00 | 0.00 | 67 | 999.2 |
| 20260905042322 | 87 | 79 | 0.0 | 0.0 | 0.00 | 0.00 | 0.00 | 67 | 999.1 |
| 20260905041817 | 88 | 71 | 0.0 | 0.0 | 0.00 | 0.00 | 0.00 | 66 | 999.1 |
| 20260905041314 | 88 | 70 | 0.0 | 0.0 | 0.00 | 0.00 | 0.00 | 67 | 999.1 |
| 20260905040809 | 88 | 71 | 0.0 | 0.0 | 0.00 | 0.00 | 0.00 | 66 | 999.1 |
| 20260905040307 | 88 | 81 | 0.0 | 0.0 | 0.00 | 0.00 | 0.00 | 66 | 999.1 |
| 20260905035802 | 88 | 74 | 0.0 | 0.0 | 0.00 | 0.00 | 0.00 | 67 | 999.2 |
| 20260905035258 | 89 | 70 | 0.0 | 0.0 | 0.00 | 0.00 | 0.00 | 65 | 999.4 |
| 20260905034754 | 89 | 72 | 0.0 | 0.0 | 0.00 | 0.00 | 0.00 | 64 | 999.2 |
| 20260905034254 | 89 | 68 | 0.0 | 0.0 | 0.00 | 0.00 | 0.00 | 64 | 999.2 |
| 20260905033753 | 89 | 68 | 0.0 | 0.0 | 0.00 | 0.00 | 0.00 | 63 | 999.2 |
| 20260905033248 | 89 | 75 | 0.0 | 0.0 | 0.00 | 0.00 | 0.00 | 62 | 999.1 |
| 20260905032748 | 89 | 72 | 0.0 | 0.0 | 0.00 | 0.00 | 0.00 | 62 | 999.2 |
| 20260905032243 | 89 | 70 | 0.0 | 0.0 | 0.00 | 0.00 | 0.00 | 63 | 999.2 |
| 20260905031738 | 89 | 71 | 0.0 | 0.0 | 0.00 | 0.00 | 0.00 | 63 | 999.2 |
| 20260905031234 | 89 | 98 | 0.0 | 0.0 | 0.00 | 0.00 | 0.00 | 63 | 999.3 |
| 20260905030729 | 89 | 64 | 0.0 | 0.0 | 0.00 | 0.00 | 0.00 | 62 | 999.2 |
| 20260905030224 | 90 | 80 | 0.0 | 0.0 | 0.00 | 0.00 | 0.00 | 61 | 999.3 |
| 20260905025719 | 90 | 85 | 1.0 | 1.0 | 0.00 | 0.00 | 0.00 | 62 | 999.1 |
| 20260905025215 | 89 | 75 | 0.0 | 0.0 | 0.00 | 0.00 | 0.00 | 62 | 999.4 |
| 20260905024710 | 89 | 70 | 0.0 | 0.0 | 0.00 | 0.00 | 0.00 | 62 | 999.2 |
| 20260905024206 | 89 | 70 | 0.0 | 0.0 | 0.00 | 0.00 | 0.00 | 62 | 999.3 |
| 20260905023700 | 89 | 70 | 0.0 | 0.0 | 0.00 | 0.00 | 0.00 | 62 | 999.1 |
| 20260905023155 | 90 | 70 | 0.0 | 0.0 | 0.00 | 0.00 | 0.00 | 61 | 999.1 |
| 20260905022654 | 90 | 71 | 0.0 | 0.0 | 0.00 | 0.00 | 0.00 | 61 | 999.0 |
| 20260905022150 | 91 | 70 | 0.0 | 0.0 | 0.00 | 0.00 | 0.00 | 61 | 999.1 |
| 20260905021649 | 91 | 66 | 0.0 | 0.0 | 0.00 | 0.00 | 0.00 | 60 | 999.1 |
| 20260905021144 | 91 | 71 | 0.0 | 0.0 | 0.00 | 0.00 | 0.00 | 60 | 999.1 |
| 20260905020639 | 91 | 73 | 0.0 | 0.0 | 0.00 | 0.00 | 0.00 | 60 | 999.2 |
| 20260905020135 | 91 | 68 | 0.0 | 0.0 | 0.00 | 0.00 | 0.00 | 60 | 999.2 |
| 20260905015633 | 91 | 69 | 0.0 | 0.0 | 0.00 | 0.00 | 0.00 | 61 | 998.9 |
| 20260905015127 | 91 | 73 | 0.0 | 0.0 | 0.00 | 0.00 | 0.00 | 62 | 998.9 |
| 20260905014621 | 91 | 64 | 0.0 | 0.0 | 0.00 | 0.00 | 0.00 | 61 | 998.8 |
| 20260905014117 | 91 | 61 | 0.0 | 0.0 | 0.00 | 0.00 | 0.00 | 61 | 998.8 |
| 20260905013613 | 91 | 77 | 0.0 | 1.0 | 0.00 | 0.00 | 0.00 | 60 | 998.7 |
| 20260905013109 | 91 | 71 | 0.0 | 0.0 | 0.00 | 0.00 | 0.00 | 59 | 998.7 |
| 20260905012609 | 91 | 69 | 0.0 | 0.0 | 0.00 | 0.00 | 0.00 | 59 | 998.5 |
| 20260905012106 | 91 | 63 | 0.0 | 0.0 | 0.00 | 0.00 | 0.00 | 60 | 998.8 |
| 20260905011601 | 91 | 63 | 0.0 | 0.0 | 0.00 | 0.00 | 0.00 | 61 | 998.5 |
| 20260905011057 | 91 | 63 | 0.0 | 0.0 | 0.00 | 0.00 | 0.00 | 61 | 998.6 |
| 20260905010556 | 91 | 63 | 0.0 | 0.0 | 0.00 | 0.00 | 0.00 | 60 | 998.6 |
| 20260905010053 | 91 | 63 | 0.0 | 0.0 | 0.00 | 0.00 | 0.00 | 60 | 998.4 |
| 20260905005548 | 91 | 63 | 0.0 | 0.0 | 0.00 | 0.00 | 0.00 | 60 | 998.5 |
| 20260905005043 | 91 | 63 | 0.0 | 0.0 | 0.00 | 0.00 | 0.00 | 60 | 998.2 |
| 20260905004538 | 91 | 63 | 0.0 | 0.0 | 0.00 | 0.00 | 0.00 | 60 | 998.3 |
| 20260905004033 | 92 | 63 | 0.0 | 0.0 | 0.00 | 0.00 | 0.00 | 59 | 998.4 |
| 20260905003529 | 92 | 63 | 0.0 | 0.0 | 0.00 | 0.00 | 0.00 | 59 | 998.3 |
| 20260905003024 | 93 | 63 | 0.0 | 0.0 | 0.00 | 0.00 | 0.00 | 58 | 998.2 |
| 20260905002520 | 93 | 53 | 0.0 | 0.0 | 0.00 | 0.00 | 0.00 | 57 | 998.4 |
| 20260905002014 | 93 | 12 | 1.0 | 1.0 | 0.00 | 0.00 | 0.00 | 56 | 998.1 |
| 20260905001509 | 93 | 51 | 0.0 | 0.0 | 0.00 | 0.00 | 0.00 | 57 | 998.3 |
| 20260905001003 | 93 | 56 | 0.0 | 0.0 | 0.00 | 0.00 | 0.00 | 57 | 998.2 |
| 20260905000459 | 94 | 62 | 0.0 | 0.0 | 0.00 | 0.00 | 0.00 | 58 | 998.3 |
| 20260904235954 | 94 | 58 | 0.0 | 0.0 | 0.00 | 0.00 | 0.00 | 57 | 998.4 |
| 20260904235449 | 95 | 57 | 0.0 | 0.0 | 0.00 | 0.00 | 0.00 | 56 | 998.3 |
| 20260904234943 | 95 | 51 | 0.0 | 0.0 | 0.00 | 0.00 | 0.00 | 56 | 998.4 |